createdAt,value
2023-04-10T00:02:23.375Z,100.00
2023-04-10T00:04:50.287Z,100.00
2023-04-10T00:07:17.014Z,100.00
2023-04-10T00:09:43.654Z,100.00
2023-04-10T00:12:11.271Z,100.00
2023-04-10T00:14:38.408Z,100.00
2023-04-10T00:17:05.142Z,100.00
2023-04-10T00:19:31.965Z,100.00
2023-04-10T00:21:58.623Z,100.00
2023-04-10T00:24:25.788Z,100.00
2023-04-10T00:26:53.113Z,100.00
2023-04-10T00:29:20.168Z,100.00
2023-04-10T00:31:47.189Z,100.00
2023-04-10T00:34:14.200Z,100.00
2023-04-10T00:36:41.271Z,100.00
2023-04-10T00:39:09.429Z,100.00
2023-04-10T00:44:26.006Z,100.00
2023-04-10T00:46:53.284Z,100.00
2023-04-10T00:49:20.178Z,100.00
2023-04-10T00:51:47.956Z,100.00
2023-04-10T00:54:14.545Z,100.00
2023-04-10T00:56:41.705Z,100.00
2023-04-10T00:59:08.462Z,100.00
2023-04-10T01:01:35.563Z,100.00
2023-04-10T01:04:03.039Z,100.00
2023-04-10T01:06:29.934Z,100.00
2023-04-10T01:09:02.541Z,100.00
2023-04-10T01:11:53.796Z,100.00
2023-04-10T01:14:27.739Z,100.00
2023-04-10T01:17:02.331Z,100.00
2023-04-10T01:19:38.076Z,100.00
2023-04-10T01:22:10.581Z,100.00
2023-04-10T01:24:55.570Z,100.00
2023-04-10T01:27:52.760Z,100.00
2023-04-10T01:30:22.610Z,100.00
2023-04-10T01:32:54.188Z,100.00
2023-04-10T01:35:21.700Z,100.00
2023-04-10T01:37:51.138Z,100.00
2023-04-10T01:40:20.968Z,100.00
2023-04-10T01:42:55.460Z,100.00
2023-04-10T01:45:29.239Z,100.00
2023-04-10T01:47:56.758Z,100.00
2023-04-10T01:50:24.685Z,100.00
2023-04-10T01:52:53.065Z,100.00
2023-04-10T01:55:23.163Z,100.00
2023-04-10T01:57:54.718Z,100.00
2023-04-10T02:00:22.928Z,100.00
2023-04-10T02:02:51.810Z,100.00
2023-04-10T02:05:19.572Z,100.00
2023-04-10T02:08:07.900Z,100.00
2023-04-10T02:10:53.448Z,100.00
2023-04-10T02:13:22.519Z,100.00
2023-04-10T02:15:51.607Z,100.00
2023-04-10T02:18:19.979Z,100.00
2023-04-10T02:20:47.405Z,100.00
2023-04-10T02:23:17.186Z,100.00
2023-04-10T02:25:44.013Z,100.00
2023-04-10T02:28:10.775Z,100.00
2023-04-10T02:30:39.162Z,100.00
2023-04-10T02:33:06.210Z,100.00
2023-04-10T02:35:33.907Z,100.00
2023-04-10T02:38:03.149Z,100.00
2023-04-10T02:40:30.872Z,100.00
2023-04-10T02:43:12.414Z,100.00
2023-04-10T02:45:40.080Z,100.00
2023-04-10T02:48:07.977Z,100.00
2023-04-10T02:50:35.085Z,100.00
2023-04-10T02:53:02.004Z,100.00
2023-04-10T02:55:28.736Z,100.00
2023-04-10T02:57:55.791Z,100.00
2023-04-10T03:00:23.237Z,100.00
2023-04-10T03:03:13.645Z,100.00
2023-04-10T03:05:49.719Z,100.00
2023-04-10T03:08:21.082Z,100.00
2023-04-10T03:10:51.206Z,100.00
2023-04-10T03:13:18.063Z,100.00
2023-04-10T03:15:44.731Z,100.00
2023-04-10T03:18:11.509Z,100.00
2023-04-10T03:20:41.094Z,100.00
2023-04-10T03:23:08.201Z,100.00
2023-04-10T03:25:35.393Z,100.00
2023-04-10T03:28:03.531Z,100.00
2023-04-10T03:30:30.913Z,100.00
2023-04-10T03:32:57.454Z,100.00
2023-04-10T03:35:24.438Z,100.00
2023-04-10T03:37:51.118Z,100.00
2023-04-10T03:40:17.861Z,100.00
2023-04-10T03:42:44.791Z,100.00
2023-04-10T03:45:12.380Z,100.00
2023-04-10T03:47:39.382Z,100.00
2023-04-10T03:50:08.675Z,100.00
2023-04-10T03:52:43.761Z,100.00
2023-04-10T03:55:18.933Z,100.00
2023-04-10T03:57:47.564Z,100.00
2023-04-10T04:00:16.734Z,100.00
2023-04-10T04:02:52.887Z,100.00
2023-04-10T04:05:37.967Z,100.00
2023-04-10T04:08:27.943Z,100.00
2023-04-10T04:11:05.935Z,100.00
2023-04-10T04:13:36.602Z,100.00
2023-04-10T04:16:11.159Z,100.00
2023-04-10T04:18:45.426Z,100.00
2023-04-10T04:21:28.912Z,100.00
2023-04-10T04:24:04.924Z,100.00
2023-04-10T04:26:52.947Z,100.00
2023-04-10T04:29:51.881Z,100.00
2023-04-10T04:32:36.279Z,100.00
2023-04-10T04:35:13.506Z,100.00
2023-04-10T04:38:16.646Z,100.00
2023-04-10T04:41:00.872Z,100.00
2023-04-10T04:43:43.209Z,100.00
2023-04-10T04:46:26.207Z,100.00
2023-04-10T04:49:11.934Z,100.00
2023-04-10T04:51:48.325Z,100.00
2023-04-10T04:54:44.229Z,100.00
2023-04-10T04:57:31.282Z,100.00
2023-04-10T05:00:10.987Z,100.00
2023-04-10T05:03:04.370Z,100.00
2023-04-10T05:05:35.533Z,100.00
2023-04-10T05:08:25.570Z,100.00
2023-04-10T05:11:22.967Z,100.00
2023-04-10T05:14:08.293Z,100.00
2023-04-10T05:16:44.335Z,100.00
2023-04-10T05:19:19.696Z,100.00
2023-04-10T05:22:10.705Z,100.00
2023-04-10T05:24:56.628Z,100.00
2023-04-10T05:27:29.326Z,100.00
2023-04-10T05:29:58.903Z,100.00
2023-04-10T05:32:46.269Z,100.00
2023-04-10T05:35:26.305Z,100.00
2023-04-10T05:38:19.451Z,100.00
2023-04-10T05:41:13.835Z,100.00
2023-04-10T05:44:15.358Z,100.00
2023-04-10T05:47:17.312Z,100.00
2023-04-10T05:49:57.986Z,100.00
2023-04-10T05:52:49.527Z,100.00
2023-04-10T05:55:34.835Z,100.00
2023-04-10T05:58:33.845Z,100.00
2023-04-10T06:01:13.518Z,100.00
2023-04-10T06:03:49.586Z,100.00
2023-04-10T06:06:17.515Z,100.00
2023-04-10T06:08:44.529Z,100.00
2023-04-10T06:11:11.083Z,100.00
2023-04-10T06:13:38.054Z,100.00
2023-04-10T06:16:05.601Z,100.00
2023-04-10T06:18:33.362Z,100.00
2023-04-10T06:21:02.112Z,100.00
2023-04-10T06:23:28.915Z,100.00
2023-04-10T06:25:56.081Z,100.00
2023-04-10T06:28:23.508Z,100.00
2023-04-10T06:30:54.931Z,100.00
2023-04-10T06:33:30.659Z,100.00
2023-04-10T06:35:58.741Z,100.00
2023-04-10T06:38:26.292Z,100.00
2023-04-10T06:40:53.044Z,100.00
2023-04-10T06:43:19.687Z,100.00
2023-04-10T06:45:46.372Z,100.00
2023-04-10T06:48:13.199Z,100.00
2023-04-10T06:50:39.998Z,100.00
2023-04-10T06:53:06.587Z,100.00
2023-04-10T06:55:33.427Z,100.00
2023-04-10T06:58:00.339Z,100.00
2023-04-10T07:00:27.168Z,100.00
2023-04-10T07:02:54.254Z,100.00
2023-04-10T07:05:21.089Z,100.00
2023-04-10T07:07:47.728Z,100.00
2023-04-10T07:10:14.446Z,98.43
2023-04-10T07:12:40.996Z,98.11
2023-04-10T07:15:08.304Z,95.43
2023-04-10T07:17:35.344Z,85.08
2023-04-10T07:20:02.469Z,80.10
2023-04-10T07:22:28.951Z,83.05
2023-04-10T07:24:56.364Z,75.90
2023-04-10T07:27:24.840Z,71.90
2023-04-10T07:29:55.340Z,73.81
2023-04-10T07:32:22.200Z,69.38
2023-04-10T07:34:48.940Z,70.24
2023-04-10T07:37:15.865Z,71.23
2023-04-10T07:39:42.387Z,70.64
2023-04-10T07:42:11.170Z,65.94
2023-04-10T07:44:37.913Z,65.82
2023-04-10T07:47:04.655Z,64.39
2023-04-10T07:49:31.188Z,59.44
2023-04-10T07:51:57.866Z,61.61
2023-04-10T07:54:24.934Z,58.64
2023-04-10T07:56:54.598Z,58.62
2023-04-10T07:59:21.206Z,55.18
2023-04-10T08:01:47.872Z,52.70
2023-04-10T08:04:14.879Z,55.95
2023-04-10T08:06:41.581Z,54.90
2023-04-10T08:09:08.531Z,55.74
2023-04-10T08:11:38.329Z,51.31
2023-04-10T08:14:06.908Z,55.83
2023-04-10T08:16:35.222Z,54.87
2023-04-10T08:19:02.773Z,52.71
2023-04-10T08:21:31.706Z,53.33
2023-04-10T08:24:00.149Z,52.78
2023-04-10T08:26:27.984Z,50.82
2023-04-10T08:28:57.601Z,50.51
2023-04-10T08:31:26.687Z,47.35
2023-04-10T08:33:53.947Z,48.92
2023-04-10T08:36:21.144Z,46.24
2023-04-10T08:38:48.758Z,44.34
2023-04-10T08:41:18.097Z,42.65
2023-04-10T08:43:46.429Z,44.93
2023-04-10T08:46:16.445Z,42.69
2023-04-10T08:48:46.294Z,43.11
2023-04-10T08:51:26.727Z,41.85
2023-04-10T08:54:03.364Z,42.13
2023-04-10T08:56:32.766Z,40.66
2023-04-10T08:59:01.507Z,39.37
2023-04-10T09:01:28.393Z,39.57
2023-04-10T09:03:55.441Z,41.15
2023-04-10T09:06:22.454Z,40.44
2023-04-10T09:08:48.993Z,38.88
2023-04-10T09:11:15.817Z,39.43
2023-04-10T09:13:44.344Z,39.09
2023-04-10T09:16:12.004Z,37.81
2023-04-10T09:18:44.774Z,37.59
2023-04-10T09:21:13.501Z,38.72
2023-04-10T09:23:42.076Z,37.17
2023-04-10T09:26:28.977Z,36.34
2023-04-10T09:29:03.790Z,36.03
2023-04-10T09:31:35.462Z,37.09
2023-04-10T09:34:12.740Z,33.63
2023-04-10T09:36:41.807Z,34.06
2023-04-10T09:39:12.213Z,34.05
2023-04-10T09:41:55.802Z,35.67
2023-04-10T09:44:34.441Z,36.52
2023-04-10T09:47:13.857Z,32.29
2023-04-10T09:49:52.637Z,32.46
2023-04-10T09:52:27.243Z,33.22
2023-04-10T09:54:59.558Z,36.61
2023-04-10T09:57:29.698Z,35.25
2023-04-10T09:59:58.649Z,36.04
2023-04-10T10:02:30.251Z,35.80
2023-04-10T10:05:01.064Z,33.23
2023-04-10T10:07:29.551Z,36.15
2023-04-10T10:09:58.051Z,36.33
2023-04-10T10:12:37.095Z,34.33
2023-04-10T10:15:09.298Z,32.12
2023-04-10T10:17:43.513Z,31.73
2023-04-10T10:20:12.157Z,30.33
2023-04-10T10:22:38.801Z,30.32
2023-04-10T10:25:07.785Z,30.91
2023-04-10T10:27:38.101Z,30.80
2023-04-10T10:30:20.714Z,30.83
2023-04-10T10:32:56.362Z,28.78
2023-04-10T10:35:26.344Z,27.96
2023-04-10T10:37:55.099Z,29.94
2023-04-10T10:40:49.318Z,29.52
2023-04-10T10:43:36.004Z,28.44
2023-04-10T10:46:07.263Z,28.63
2023-04-10T10:48:33.919Z,28.28
2023-04-10T10:51:02.356Z,26.91
2023-04-10T10:53:44.491Z,27.72
2023-04-10T10:56:20.629Z,27.26
2023-04-10T10:58:57.644Z,27.62
2023-04-10T11:01:24.886Z,28.22
2023-04-10T11:03:51.723Z,27.44
2023-04-10T11:06:20.686Z,25.92
2023-04-10T11:08:49.192Z,25.89
2023-04-10T11:11:27.483Z,26.68
2023-04-10T11:13:57.210Z,24.26
2023-04-10T11:16:43.851Z,25.40
2023-04-10T11:19:16.195Z,25.86
2023-04-10T11:22:02.851Z,25.29
2023-04-10T11:24:50.057Z,23.70
2023-04-10T11:27:40.563Z,24.30
2023-04-10T11:30:30.654Z,24.77
2023-04-10T11:32:58.397Z,26.57
2023-04-10T11:35:26.556Z,25.50
2023-04-10T11:38:08.547Z,25.07
2023-04-10T11:40:35.341Z,22.93
2023-04-10T11:43:15.219Z,24.42
2023-04-10T11:45:42.241Z,22.91
2023-04-10T11:48:09.552Z,25.39
2023-04-10T11:50:36.424Z,25.29
2023-04-10T11:53:17.751Z,26.08
2023-04-10T11:55:44.402Z,25.98
2023-04-10T11:58:32.478Z,24.88
2023-04-10T12:01:04.383Z,24.61
2023-04-10T12:03:38.339Z,21.60
2023-04-10T12:06:11.766Z,23.17
2023-04-10T12:08:51.815Z,22.01
2023-04-10T12:11:20.554Z,21.60
2023-04-10T12:13:48.399Z,21.80
2023-04-10T12:16:15.469Z,22.64
2023-04-10T12:18:42.591Z,21.35
2023-04-10T12:21:09.546Z,21.02
2023-04-10T12:23:41.202Z,20.70
2023-04-10T12:26:13.885Z,21.65
2023-04-10T12:28:42.628Z,22.94
2023-04-10T12:31:10.168Z,21.43
2023-04-10T12:33:37.231Z,21.31
2023-04-10T12:36:04.244Z,21.92
2023-04-10T12:38:45.121Z,20.95
2023-04-10T12:41:12.321Z,21.73
2023-04-10T12:43:41.224Z,23.46
2023-04-10T12:46:10.837Z,22.48
2023-04-10T12:48:37.936Z,22.78
2023-04-10T12:51:04.753Z,23.64
2023-04-10T12:53:32.004Z,22.27
2023-04-10T12:55:59.485Z,21.50
2023-04-10T12:58:31.128Z,20.16
2023-04-10T13:01:00.006Z,20.12
2023-04-10T13:03:27.518Z,21.27
2023-04-10T13:05:54.547Z,20.86
2023-04-10T13:08:22.258Z,19.82
2023-04-10T13:10:49.452Z,20.76
2023-04-10T13:13:16.920Z,20.94
2023-04-10T13:15:44.158Z,19.22
2023-04-10T13:18:11.144Z,19.12
2023-04-10T13:20:40.059Z,18.88
2023-04-10T13:23:07.808Z,19.47
2023-04-10T13:25:39.836Z,18.44
2023-04-10T13:28:11.316Z,19.02
2023-04-10T13:30:40.712Z,20.07
2023-04-10T13:33:08.464Z,19.63
2023-04-10T13:35:35.572Z,19.05
2023-04-10T13:38:02.228Z,19.32
2023-04-10T13:40:29.012Z,19.00
2023-04-10T13:42:55.901Z,18.65
2023-04-10T13:45:22.870Z,19.29
2023-04-10T13:47:50.005Z,19.77
2023-04-10T13:50:16.825Z,19.56
2023-04-10T13:52:43.463Z,20.31
2023-04-10T13:55:13.151Z,19.21
2023-04-10T13:57:39.952Z,19.91
2023-04-10T14:00:07.722Z,19.79
2023-04-10T14:02:41.916Z,19.41
2023-04-10T14:05:09.563Z,18.78
2023-04-10T14:07:36.246Z,19.22
2023-04-10T14:10:03.251Z,18.38
2023-04-10T14:12:29.923Z,17.20
2023-04-10T14:14:57.002Z,17.82
2023-04-10T14:17:24.040Z,15.95
2023-04-10T14:19:52.500Z,16.59
2023-04-10T14:22:19.154Z,17.31
2023-04-10T14:24:46.181Z,17.87
2023-04-10T14:27:13.672Z,18.07
2023-04-10T14:29:50.626Z,18.52
2023-04-10T14:32:21.280Z,18.94
2023-04-10T14:34:48.135Z,19.51
2023-04-10T14:37:15.584Z,18.47
2023-04-10T14:39:42.577Z,19.27
2023-04-10T14:42:10.691Z,20.45
2023-04-10T14:44:37.288Z,20.47
2023-04-10T14:47:06.575Z,19.69
2023-04-10T14:49:33.370Z,20.47
2023-04-10T14:52:00.234Z,20.22
2023-04-10T14:54:27.001Z,18.66
2023-04-10T14:56:53.695Z,19.28
2023-04-10T14:59:20.389Z,19.36
2023-04-10T15:01:47.338Z,17.97
2023-04-10T15:04:14.227Z,18.05
2023-04-10T15:06:41.135Z,17.29
2023-04-10T15:09:07.780Z,17.56
2023-04-10T15:11:34.499Z,18.17
2023-04-10T15:14:02.317Z,17.39
2023-04-10T15:16:32.003Z,18.04
2023-04-10T15:18:58.816Z,17.73
2023-04-10T15:21:27.268Z,17.45
2023-04-10T15:23:54.278Z,17.51
2023-04-10T15:26:21.311Z,18.34
2023-04-10T15:28:48.431Z,20.54
2023-04-10T15:31:15.661Z,22.72
2023-04-10T15:33:42.453Z,21.08
2023-04-10T15:36:09.461Z,22.75
2023-04-10T15:38:36.258Z,22.43
2023-04-10T15:41:10.652Z,22.92
2023-04-10T15:43:38.125Z,21.88
2023-04-10T15:46:05.505Z,22.74
2023-04-10T15:48:32.443Z,23.70
2023-04-10T15:51:03.174Z,25.21
2023-04-10T15:53:30.074Z,26.40
2023-04-10T15:55:56.663Z,27.00
2023-04-10T15:58:23.344Z,28.98
2023-04-10T16:00:50.253Z,28.05
2023-04-10T16:03:16.938Z,28.10
2023-04-10T16:05:43.972Z,29.39
2023-04-10T16:08:10.899Z,30.93
2023-04-10T16:10:37.481Z,31.52
2023-04-10T16:13:05.108Z,32.21
2023-04-10T16:15:35.574Z,35.60
2023-04-10T16:18:07.597Z,34.15
2023-04-10T16:20:34.578Z,32.23
2023-04-10T16:23:01.374Z,32.69
2023-04-10T16:25:28.257Z,33.65
2023-04-10T16:27:55.593Z,33.01
2023-04-10T16:30:23.042Z,34.31
2023-04-10T16:32:49.793Z,34.63
2023-04-10T16:35:18.984Z,34.96
2023-04-10T16:37:46.469Z,34.93
2023-04-10T16:40:13.783Z,34.96
2023-04-10T16:42:40.606Z,36.28
2023-04-10T16:45:08.432Z,37.01
2023-04-10T16:47:35.826Z,35.56
2023-04-10T16:50:02.919Z,33.80
2023-04-10T16:52:29.715Z,35.63
2023-04-10T16:54:56.398Z,31.78
2023-04-10T16:57:23.290Z,32.12
2023-04-10T16:59:49.932Z,32.25
2023-04-10T17:02:16.602Z,33.10
2023-04-10T17:04:43.427Z,32.27
2023-04-10T17:07:10.220Z,32.65
2023-04-10T17:09:37.800Z,33.46
2023-04-10T17:12:04.828Z,33.41
2023-04-10T17:14:31.613Z,33.39
2023-04-10T17:16:58.354Z,33.84
2023-04-10T17:19:25.346Z,34.49
2023-04-10T17:21:52.418Z,34.95
2023-04-10T17:24:19.024Z,34.85
2023-04-10T17:26:45.859Z,34.89
2023-04-10T17:29:12.445Z,36.41
2023-04-10T17:31:39.305Z,36.76
2023-04-10T17:34:06.065Z,37.17
2023-04-10T17:36:32.771Z,38.25
2023-04-10T17:39:00.715Z,37.54
2023-04-10T17:41:27.780Z,38.02
2023-04-10T17:43:54.489Z,38.61
2023-04-10T17:46:21.290Z,38.68
2023-04-10T17:48:48.241Z,39.52
2023-04-10T17:51:14.926Z,40.44
2023-04-10T17:53:41.701Z,40.98
2023-04-10T17:56:08.600Z,41.27
2023-04-10T17:58:35.243Z,42.27
2023-04-10T18:01:01.863Z,42.59
2023-04-10T18:03:28.618Z,43.30
2023-04-10T18:05:55.330Z,43.73
2023-04-10T18:08:21.849Z,44.93
2023-04-10T18:10:48.856Z,45.32
2023-04-10T18:13:15.408Z,45.76
2023-04-10T18:15:42.399Z,46.83
2023-04-10T18:18:09.087Z,47.33
2023-04-10T18:20:35.681Z,48.85
2023-04-10T18:23:04.439Z,50.13
2023-04-10T18:25:31.358Z,50.45
2023-04-10T18:28:13.900Z,52.34
2023-04-10T18:30:42.397Z,51.46
2023-04-10T18:33:11.092Z,51.41
2023-04-10T18:35:38.504Z,52.83
2023-04-10T18:38:05.222Z,52.52
2023-04-10T18:40:32.170Z,52.37
2023-04-10T18:42:59.778Z,53.79
2023-04-10T18:45:26.319Z,54.07
2023-04-10T18:47:53.322Z,54.47
2023-04-10T18:50:20.129Z,54.95
2023-04-10T18:52:46.926Z,55.19
2023-04-10T18:55:13.515Z,55.56
2023-04-10T18:57:40.451Z,55.34
2023-04-10T19:00:08.254Z,56.40
2023-04-10T19:02:35.317Z,58.50
2023-04-10T19:05:02.260Z,60.81
2023-04-10T19:07:29.090Z,61.01
2023-04-10T19:09:55.869Z,64.00
2023-04-10T19:12:22.623Z,63.06
2023-04-10T19:14:49.251Z,62.21
2023-04-10T19:17:16.049Z,64.30
2023-04-10T19:19:42.945Z,62.99
2023-04-10T19:22:09.640Z,62.02
2023-04-10T19:24:36.195Z,61.41
2023-04-10T19:27:03.299Z,62.78
2023-04-10T19:29:31.116Z,62.62
2023-04-10T19:31:57.751Z,63.85
2023-04-10T19:34:24.744Z,66.13
2023-04-10T19:36:51.466Z,67.47
2023-04-10T19:39:18.097Z,69.05
2023-04-10T19:41:44.844Z,68.31
2023-04-10T19:44:11.657Z,67.99
2023-04-10T19:46:38.698Z,65.93
2023-04-10T19:49:05.493Z,66.35
2023-04-10T19:51:32.455Z,68.00
2023-04-10T19:53:59.328Z,67.74
2023-04-10T19:56:27.821Z,66.56
2023-04-10T19:58:54.553Z,67.60
2023-04-10T20:01:23.919Z,67.48
2023-04-10T20:03:51.081Z,68.13
2023-04-10T20:06:17.773Z,68.69
2023-04-10T20:08:44.730Z,68.24
2023-04-10T20:11:11.547Z,69.13
2023-04-10T20:13:40.191Z,68.66
2023-04-10T20:16:07.789Z,69.31
2023-04-10T20:18:34.732Z,69.71
2023-04-10T20:21:01.583Z,70.59
2023-04-10T20:23:28.444Z,71.34
2023-04-10T20:25:54.976Z,71.87
2023-04-10T20:28:21.646Z,73.11
2023-04-10T20:30:48.643Z,72.85
2023-04-10T20:33:15.475Z,73.42
2023-04-10T20:35:42.472Z,73.97
2023-04-10T20:38:09.563Z,74.04
2023-04-10T20:40:36.179Z,74.97
2023-04-10T20:43:02.768Z,76.01
2023-04-10T20:45:29.566Z,76.09
2023-04-10T20:47:57.363Z,86.31
2023-04-10T20:50:24.078Z,88.22
2023-04-10T20:52:51.098Z,90.85
2023-04-10T20:55:18.413Z,92.44
2023-04-10T20:57:44.947Z,97.08
2023-04-10T21:00:12.141Z,95.82
2023-04-10T21:02:39.023Z,95.62
2023-04-10T21:05:06.461Z,97.70
2023-04-10T21:07:33.266Z,99.51
2023-04-10T21:09:59.955Z,98.99
2023-04-10T21:12:26.585Z,100.00
2023-04-10T21:14:53.113Z,100.00
2023-04-10T21:17:20.222Z,99.09
2023-04-10T21:19:47.078Z,99.07
2023-04-10T21:22:13.900Z,100.00
2023-04-10T21:24:40.472Z,99.10
2023-04-10T21:27:08.155Z,95.43
2023-04-10T21:29:34.825Z,96.18
2023-04-10T21:32:01.561Z,98.67
2023-04-10T21:34:28.248Z,100.00
2023-04-10T21:36:55.403Z,100.00
2023-04-10T21:39:21.947Z,100.00
2023-04-10T21:41:48.898Z,100.00
2023-04-10T21:44:15.596Z,99.05
2023-04-10T21:46:42.160Z,99.41
2023-04-10T21:49:08.787Z,100.00
2023-04-10T21:51:35.665Z,100.00
2023-04-10T21:54:02.519Z,100.00
2023-04-10T21:56:31.918Z,100.00
2023-04-10T21:58:58.738Z,100.00
2023-04-10T22:01:25.457Z,100.00
2023-04-10T22:03:53.923Z,100.00
2023-04-10T22:06:20.986Z,100.00
2023-04-10T22:08:47.730Z,100.00
2023-04-10T22:11:14.579Z,100.00
2023-04-10T22:13:41.170Z,100.00
2023-04-10T22:16:08.540Z,100.00
2023-04-10T22:18:35.462Z,100.00
2023-04-10T22:21:02.134Z,100.00
2023-04-10T22:23:28.706Z,99.62
2023-04-10T22:25:55.423Z,99.22
2023-04-10T22:28:22.191Z,92.61
2023-04-10T22:30:48.931Z,87.67
2023-04-10T22:33:15.758Z,83.32
2023-04-10T22:35:42.398Z,81.08
2023-04-10T22:38:09.342Z,79.17
2023-04-10T22:40:35.973Z,77.00
2023-04-10T22:43:02.931Z,76.25
2023-04-10T22:45:29.977Z,75.54
2023-04-10T22:47:56.588Z,73.81
2023-04-10T22:50:23.290Z,70.84
2023-04-10T22:52:50.347Z,70.00
2023-04-10T22:55:17.122Z,69.27
2023-04-10T22:57:48.394Z,69.10
2023-04-10T23:00:15.943Z,67.31
2023-04-10T23:02:42.589Z,66.66
2023-04-10T23:05:09.586Z,66.20
2023-04-10T23:07:36.256Z,66.43
2023-04-10T23:10:03.115Z,65.98
2023-04-10T23:12:29.955Z,65.39
2023-04-10T23:14:56.976Z,64.64
2023-04-10T23:17:23.529Z,64.37
2023-04-10T23:19:50.198Z,64.26
2023-04-10T23:22:16.991Z,63.99
2023-04-10T23:24:43.649Z,63.39
2023-04-10T23:27:10.517Z,63.24
2023-04-10T23:29:37.163Z,62.28
2023-04-10T23:32:04.128Z,61.92
2023-04-10T23:34:30.695Z,61.52
2023-04-10T23:36:58.283Z,61.78
2023-04-10T23:39:25.069Z,61.47
2023-04-10T23:41:51.708Z,61.17
2023-04-10T23:44:18.272Z,61.51
2023-04-10T23:46:45.317Z,60.64
2023-04-10T23:49:12.115Z,60.95
2023-04-10T23:51:38.814Z,61.04
2023-04-10T23:54:06.058Z,60.80
2023-04-10T23:56:32.669Z,61.62
2023-04-10T23:58:59.538Z,61.76
